EWR weather

Newark Liberty International Airport
Newark, New Jersey, United States

Public forecast

Using degrees Fahrenheit for public forecast. Weather courtesy of forecast.io.

METAR (pilot weather report)

Retrieved 2018/08/20 02:51 UTC (45 minutes ago):

KEWR 200251Z 10006KT 10SM FEW015 SCT025 OVC040 22/18 A3008 RMK AO2 RAB24E30 SLP185 P0000 60000 T02220183 51015 $

TAF (pilot weather forecast)

Forecast is more than 12 hours old.

Retrieved 2018/08/19 00:39 UTC (1 day ago):

TAF KEWR 192337Z 2000/2106 04006KT P6SM SCT025 BKN050 FM200500 02006KT P6SM SCT015 BKN035 FM200900 04008KT P6SM SCT015 BKN025 FM201700 07008KT P6SM SCT025 BKN035